createdAt,value
2023-02-03T00:00:28.934Z,4.85
2023-02-03T00:02:58.308Z,6.72
2023-02-03T00:05:27.635Z,7.45
2023-02-03T00:07:56.867Z,6.40
2023-02-03T00:10:26.657Z,8.00
2023-02-03T00:12:57.880Z,5.32
2023-02-03T00:15:27.097Z,6.70
2023-02-03T00:17:56.382Z,5.65
2023-02-03T00:20:26.220Z,5.35
2023-02-03T00:22:55.705Z,4.63
2023-02-03T00:25:24.825Z,9.25
2023-02-03T00:27:53.895Z,7.97
2023-02-03T00:30:24.773Z,8.90
2023-02-03T00:32:53.990Z,5.50
2023-02-03T00:35:24.095Z,8.75
2023-02-03T00:37:54.323Z,5.45
2023-02-03T00:40:25.781Z,8.98
2023-02-03T00:45:25.632Z,6.95
2023-02-03T00:47:54.964Z,7.97
2023-02-03T00:50:24.891Z,4.43
2023-02-03T00:52:54.176Z,5.97
2023-02-03T00:55:23.171Z,11.63
2023-02-03T00:57:52.376Z,7.68
2023-02-03T01:00:22.100Z,7.70
2023-02-03T01:02:52.581Z,6.57
2023-02-03T01:05:22.556Z,6.32
2023-02-03T01:07:51.756Z,10.48
2023-02-03T01:10:21.192Z,11.35
2023-02-03T01:12:50.330Z,8.73
2023-02-03T01:15:19.613Z,7.35
2023-02-03T01:17:48.637Z,8.80
2023-02-03T01:20:21.668Z,8.30
2023-02-03T01:22:50.795Z,6.50
2023-02-03T01:26:11.342Z,9.18
2023-02-03T01:28:41.888Z,7.57
2023-02-03T01:31:13.171Z,9.10
2023-02-03T01:36:13.209Z,9.68
2023-02-03T01:38:42.672Z,8.95
2023-02-03T01:41:14.399Z,9.32
2023-02-03T01:43:46.013Z,7.97
2023-02-03T01:46:28.840Z,6.80
2023-02-03T01:49:05.550Z,6.32
2023-02-03T01:51:36.842Z,6.47
2023-02-03T01:56:39.980Z,5.32
2023-02-03T01:59:09.543Z,4.50
2023-02-03T02:01:38.953Z,4.60
2023-02-03T02:04:08.301Z,5.70
2023-02-03T02:06:38.978Z,12.50
2023-02-03T02:09:13.560Z,4.68
2023-02-03T02:14:13.410Z,3.10
2023-02-03T02:16:52.488Z,5.25
2023-02-03T02:19:46.805Z,4.22
2023-02-03T02:22:21.837Z,4.40
2023-02-03T02:25:34.254Z,1.95
2023-02-03T02:28:33.243Z,1.60
2023-02-03T02:31:22.264Z,3.38
2023-02-03T02:34:02.624Z,3.75
2023-02-03T02:36:43.922Z,3.60
2023-02-03T02:39:21.404Z,3.05
2023-02-03T02:41:57.824Z,4.53
2023-02-03T02:44:30.235Z,4.40
2023-02-03T02:47:02.750Z,6.05
2023-02-03T02:49:36.386Z,3.55
2023-02-03T02:52:08.593Z,6.45
2023-02-03T02:54:41.996Z,3.70
2023-02-03T02:57:15.010Z,6.13
2023-02-03T02:59:46.298Z,4.30
2023-02-03T03:02:15.562Z,3.07
2023-02-03T03:04:49.161Z,4.07
2023-02-03T03:07:25.685Z,4.50
2023-02-03T03:09:59.456Z,4.03
2023-02-03T03:12:32.642Z,3.90
2023-02-03T03:15:05.773Z,2.33
2023-02-03T03:17:43.869Z,3.58
2023-02-03T03:20:19.021Z,3.85
2023-02-03T03:22:52.751Z,3.00
2023-02-03T03:25:28.332Z,4.25
2023-02-03T03:28:00.854Z,5.60
2023-02-03T03:30:34.385Z,3.40
2023-02-03T03:33:04.755Z,2.80
2023-02-03T03:35:41.404Z,3.15
2023-02-03T03:38:17.742Z,2.83
2023-02-03T03:40:52.616Z,4.75
2023-02-03T03:43:23.933Z,2.88
2023-02-03T03:48:30.236Z,1.83
2023-02-03T03:51:06.442Z,2.38
2023-02-03T03:53:39.695Z,2.80
2023-02-03T03:56:14.869Z,2.22
2023-02-03T03:58:46.584Z,3.25
2023-02-03T04:01:17.737Z,2.00
2023-02-03T04:03:50.462Z,2.38
2023-02-03T04:06:21.300Z,4.32
2023-02-03T04:08:50.473Z,1.45
2023-02-03T04:11:33.355Z,2.92
2023-02-03T04:14:02.586Z,2.45
2023-02-03T04:16:32.099Z,3.33
2023-02-03T04:19:01.268Z,2.88
2023-02-03T04:21:31.808Z,1.33
2023-02-03T04:24:01.163Z,3.53
2023-02-03T04:26:30.217Z,3.22
2023-02-03T04:28:59.206Z,3.45
2023-02-03T04:31:28.783Z,2.05
2023-02-03T04:33:57.924Z,1.52
2023-02-03T04:36:27.192Z,1.80
2023-02-03T04:38:57.655Z,1.83
2023-02-03T04:41:26.717Z,2.53
2023-02-03T04:43:55.851Z,3.22
2023-02-03T04:46:24.924Z,2.10
2023-02-03T04:48:53.994Z,2.15
2023-02-03T04:51:23.166Z,5.47
2023-02-03T04:53:52.242Z,3.88
2023-02-03T04:56:22.852Z,2.38
2023-02-03T04:58:51.961Z,3.58
2023-02-03T05:01:21.147Z,4.05
2023-02-03T05:03:50.223Z,4.65
2023-02-03T05:06:23.354Z,4.95
2023-02-03T05:08:52.523Z,2.20
2023-02-03T05:11:23.637Z,4.95
2023-02-03T05:13:53.115Z,7.28
2023-02-03T05:16:22.377Z,8.38
2023-02-03T05:18:51.828Z,6.85
2023-02-03T05:21:22.719Z,5.00
2023-02-03T05:23:51.864Z,5.68
2023-02-03T05:26:22.401Z,6.57
2023-02-03T05:28:53.157Z,4.72
2023-02-03T05:31:22.633Z,4.78
2023-02-03T05:33:51.792Z,4.13
2023-02-03T05:36:21.012Z,3.72
2023-02-03T05:38:50.068Z,2.53
2023-02-03T05:41:36.646Z,2.47
2023-02-03T05:44:07.274Z,5.68
2023-02-03T05:46:36.341Z,5.40
2023-02-03T05:49:05.469Z,1.98
2023-02-03T05:51:34.569Z,3.38
2023-02-03T05:54:03.632Z,3.17
2023-02-03T05:56:32.803Z,4.97
2023-02-03T05:59:01.883Z,5.75
2023-02-03T06:01:32.773Z,8.13
2023-02-03T06:04:03.609Z,3.80
2023-02-03T06:06:34.588Z,5.57
2023-02-03T06:09:05.830Z,5.63
2023-02-03T06:11:36.027Z,7.20
2023-02-03T06:14:05.599Z,3.60
2023-02-03T06:16:36.226Z,7.00
2023-02-03T06:19:05.296Z,7.38
2023-02-03T06:21:34.359Z,6.82
2023-02-03T06:24:03.711Z,9.15
2023-02-03T06:26:33.015Z,5.38
2023-02-03T06:29:02.179Z,4.15
2023-02-03T06:31:31.517Z,6.05
2023-02-03T06:34:02.723Z,2.97
2023-02-03T06:36:32.013Z,5.38
2023-02-03T06:39:01.101Z,4.45
2023-02-03T06:41:30.831Z,3.08
2023-02-03T06:44:00.160Z,5.70
2023-02-03T06:46:30.689Z,3.22
2023-02-03T06:49:01.658Z,3.75
2023-02-03T06:51:30.694Z,4.20
2023-02-03T06:54:00.067Z,6.00
2023-02-03T06:56:29.080Z,3.97
2023-02-03T06:58:59.063Z,2.67
2023-02-03T07:01:29.880Z,3.83
2023-02-03T07:03:59.633Z,2.13
2023-02-03T07:06:32.479Z,3.75
2023-02-03T07:09:02.714Z,5.22
2023-02-03T07:11:32.245Z,1.88
2023-02-03T07:14:01.319Z,2.92
2023-02-03T07:16:31.340Z,3.85
2023-02-03T07:19:00.359Z,4.47
2023-02-03T07:21:30.840Z,3.15
2023-02-03T07:24:00.706Z,1.02
2023-02-03T07:26:30.269Z,1.42
2023-02-03T07:29:00.938Z,2.55
2023-02-03T07:31:30.207Z,1.58
2023-02-03T07:34:01.258Z,2.80
2023-02-03T07:36:31.983Z,4.07
2023-02-03T07:39:02.947Z,3.22
2023-02-03T07:41:32.205Z,4.40
2023-02-03T07:44:01.365Z,3.13
2023-02-03T07:46:30.703Z,1.83
2023-02-03T07:48:59.924Z,5.63
2023-02-03T07:51:29.084Z,5.72
2023-02-03T07:54:00.055Z,5.13
2023-02-03T07:56:30.774Z,7.13
2023-02-03T07:59:00.047Z,4.05
2023-02-03T08:01:31.511Z,3.35
2023-02-03T08:04:02.161Z,3.92
2023-02-03T08:06:31.806Z,5.30
2023-02-03T08:09:02.514Z,7.28
2023-02-03T08:11:34.394Z,7.47
2023-02-03T08:14:03.468Z,6.47
2023-02-03T08:16:32.564Z,4.38
2023-02-03T08:19:06.873Z,6.03
2023-02-03T08:21:36.043Z,10.18
2023-02-03T08:24:07.365Z,9.00
2023-02-03T08:29:05.957Z,7.43
2023-02-03T08:31:35.189Z,8.57
2023-02-03T08:34:05.680Z,8.07
2023-02-03T08:36:34.828Z,8.50
2023-02-03T08:39:04.242Z,8.50
2023-02-03T08:41:34.913Z,8.60
2023-02-03T08:44:04.069Z,6.10
2023-02-03T08:46:33.247Z,9.63
2023-02-03T08:49:03.027Z,12.05
2023-02-03T08:51:32.106Z,12.88
2023-02-03T08:54:01.157Z,16.88
2023-02-03T08:56:30.299Z,9.27
2023-02-03T08:59:00.866Z,11.25
2023-02-03T09:01:30.721Z,10.18
2023-02-03T09:04:02.129Z,10.25
2023-02-03T09:09:00.515Z,12.10
2023-02-03T09:11:29.554Z,6.28
2023-02-03T09:14:00.000Z,20.15
2023-02-03T09:16:31.049Z,9.90
2023-02-03T09:19:00.146Z,11.60
2023-02-03T09:21:40.238Z,9.23
2023-02-03T09:24:11.434Z,12.27
2023-02-03T09:26:40.424Z,12.43
2023-02-03T09:29:10.977Z,8.50
2023-02-03T09:31:47.011Z,10.82
2023-02-03T09:34:16.299Z,10.15
2023-02-03T09:36:45.426Z,8.68
2023-02-03T09:39:14.882Z,10.27
2023-02-03T09:42:11.088Z,14.20
2023-02-03T09:44:48.315Z,9.32
2023-02-03T09:47:22.995Z,11.05
2023-02-03T09:49:54.926Z,3.83
2023-02-03T09:52:26.399Z,10.60
2023-02-03T09:55:01.025Z,9.52
2023-02-03T09:57:32.506Z,7.15
2023-02-03T10:00:23.955Z,5.75
2023-02-03T10:02:59.575Z,7.15
2023-02-03T10:06:04.738Z,3.22
2023-02-03T10:09:07.739Z,10.98
2023-02-03T10:12:27.570Z,6.35
2023-02-03T10:15:31.425Z,8.02
2023-02-03T10:18:17.347Z,8.77
2023-02-03T10:20:52.851Z,7.32
2023-02-03T10:23:32.698Z,9.43
2023-02-03T10:26:06.907Z,12.05
2023-02-03T10:28:42.060Z,10.13
2023-02-03T10:31:19.916Z,6.90
2023-02-03T10:33:51.666Z,9.60
2023-02-03T10:36:22.878Z,7.25
2023-02-03T10:39:01.067Z,7.00
2023-02-03T10:41:32.352Z,11.18
2023-02-03T10:44:09.801Z,8.55
2023-02-03T10:46:47.191Z,9.15
2023-02-03T10:49:22.510Z,11.13
2023-02-03T10:51:55.772Z,3.70
2023-02-03T10:54:32.081Z,13.02
2023-02-03T10:57:06.322Z,7.57
2023-02-03T10:59:38.157Z,5.72
2023-02-03T11:02:25.998Z,7.65
2023-02-03T11:05:13.337Z,13.48
2023-02-03T11:07:42.600Z,16.48
2023-02-03T11:10:35.867Z,4.15
2023-02-03T11:13:19.646Z,6.75
2023-02-03T11:15:58.031Z,12.55
2023-02-03T11:18:47.931Z,6.30
2023-02-03T11:21:19.677Z,8.98
2023-02-03T11:23:55.536Z,4.95
2023-02-03T11:26:28.595Z,5.82
2023-02-03T11:29:00.987Z,4.88
2023-02-03T11:31:32.561Z,8.80
2023-02-03T11:34:06.033Z,7.00
2023-02-03T11:36:37.001Z,5.82
2023-02-03T11:39:28.709Z,6.38
2023-02-03T11:41:57.947Z,9.30
2023-02-03T11:44:31.204Z,5.03
2023-02-03T11:47:03.453Z,6.30
2023-02-03T11:50:11.801Z,3.38
2023-02-03T11:52:53.988Z,4.95
2023-02-03T11:55:37.767Z,5.65
2023-02-03T11:58:24.331Z,3.88
2023-02-03T12:01:01.450Z,7.53
2023-02-03T12:04:12.421Z,7.18
2023-02-03T12:07:06.338Z,10.30
2023-02-03T12:09:47.777Z,7.72
2023-02-03T12:15:05.676Z,2.80
2023-02-03T12:17:49.138Z,4.03
2023-02-03T12:20:29.743Z,6.10
2023-02-03T12:23:07.837Z,7.47
2023-02-03T12:25:48.806Z,5.68
2023-02-03T12:28:47.987Z,5.53
2023-02-03T12:31:23.194Z,3.42
2023-02-03T12:33:57.724Z,4.22
2023-02-03T12:36:31.602Z,3.58
2023-02-03T12:39:09.213Z,5.10
2023-02-03T12:42:05.792Z,2.70
2023-02-03T12:44:43.482Z,4.13
2023-02-03T12:47:19.436Z,2.90
2023-02-03T12:49:54.931Z,3.03
2023-02-03T12:52:30.910Z,4.50
2023-02-03T12:55:19.404Z,4.38
2023-02-03T12:57:57.818Z,4.15
2023-02-03T13:00:41.774Z,3.95
2023-02-03T13:03:26.315Z,7.68
2023-02-03T13:06:01.539Z,3.00
2023-02-03T13:08:35.596Z,8.43
2023-02-03T13:11:15.544Z,1.83
2023-02-03T13:13:49.786Z,4.53
2023-02-03T13:16:26.326Z,2.78
2023-02-03T13:18:59.874Z,3.65
2023-02-03T13:21:29.814Z,2.72
2023-02-03T13:23:59.288Z,15.50
2023-02-03T13:26:57.494Z,3.65
2023-02-03T13:29:52.463Z,3.65
2023-02-03T13:32:41.454Z,6.57
2023-02-03T13:35:33.967Z,4.78
2023-02-03T13:38:33.521Z,2.65
2023-02-03T13:41:08.167Z,4.50
2023-02-03T13:43:41.687Z,6.80
2023-02-03T13:46:23.431Z,2.58
2023-02-03T13:48:54.329Z,6.72
2023-02-03T13:51:29.244Z,2.13
2023-02-03T13:54:03.392Z,2.10
2023-02-03T13:56:33.428Z,3.03
2023-02-03T13:59:06.833Z,4.85
2023-02-03T14:01:38.930Z,4.22
2023-02-03T14:04:09.695Z,4.93
2023-02-03T14:07:04.269Z,5.72
2023-02-03T14:09:41.343Z,5.32
2023-02-03T14:12:41.943Z,8.63
2023-02-03T14:15:32.392Z,5.90
2023-02-03T14:18:21.264Z,3.50
2023-02-03T14:21:12.624Z,3.67
2023-02-03T14:23:46.903Z,4.25
2023-02-03T14:26:35.556Z,1.88
2023-02-03T14:29:06.205Z,2.83
2023-02-03T14:31:55.528Z,1.35
2023-02-03T14:34:39.668Z,1.48
2023-02-03T14:37:22.746Z,6.57
2023-02-03T14:40:23.734Z,4.97
2023-02-03T14:43:18.311Z,3.42
2023-02-03T14:46:07.683Z,1.52
2023-02-03T14:48:57.975Z,1.75
2023-02-03T14:51:38.298Z,2.67
2023-02-03T14:54:29.737Z,2.60
2023-02-03T14:57:19.921Z,2.72
2023-02-03T14:59:52.244Z,1.33
2023-02-03T15:02:25.847Z,1.83
2023-02-03T15:05:34.583Z,2.08
2023-02-03T15:08:03.796Z,4.55
2023-02-03T15:10:43.814Z,1.45
2023-02-03T15:13:26.813Z,5.75
2023-02-03T15:15:57.903Z,30.98
2023-02-03T15:18:32.357Z,54.78
2023-02-03T15:21:09.619Z,33.00
2023-02-03T15:23:43.361Z,41.55
2023-02-03T15:26:15.944Z,24.83
2023-02-03T15:28:54.645Z,4.40
2023-02-03T15:31:28.072Z,13.65
2023-02-03T15:33:59.725Z,6.15
2023-02-03T15:36:42.960Z,5.32
2023-02-03T15:39:29.755Z,3.40
2023-02-03T15:42:00.621Z,11.18
2023-02-03T15:44:33.999Z,19.48
2023-02-03T15:47:07.264Z,43.80
2023-02-03T15:49:43.457Z,28.80
2023-02-03T15:52:18.529Z,18.88
2023-02-03T15:54:53.732Z,3.80
2023-02-03T15:57:29.718Z,12.85
2023-02-03T16:00:01.852Z,5.28
2023-02-03T16:02:46.496Z,6.28
2023-02-03T16:05:25.819Z,3.97
2023-02-03T16:07:56.425Z,3.58
2023-02-03T16:10:31.763Z,4.35
2023-02-03T16:13:22.319Z,3.50
2023-02-03T16:16:08.435Z,9.32
2023-02-03T16:18:38.092Z,3.33
2023-02-03T16:21:07.649Z,4.82
2023-02-03T16:23:38.496Z,3.97
2023-02-03T16:26:18.912Z,4.22
2023-02-03T16:29:29.877Z,5.57
2023-02-03T16:32:16.991Z,4.13
2023-02-03T16:35:04.032Z,2.38
2023-02-03T16:37:52.298Z,4.88
2023-02-03T16:40:42.191Z,4.28
2023-02-03T16:43:32.137Z,3.30
2023-02-03T16:46:19.727Z,9.07
2023-02-03T16:49:06.301Z,7.57
2023-02-03T16:51:40.374Z,5.93
2023-02-03T16:54:13.289Z,3.45
2023-02-03T16:56:44.006Z,18.17
2023-02-03T16:59:13.155Z,11.57
2023-02-03T17:01:42.404Z,9.73
2023-02-03T17:04:12.059Z,8.35
2023-02-03T17:06:44.201Z,7.07
2023-02-03T17:09:13.307Z,6.20
2023-02-03T17:11:44.114Z,13.50
2023-02-03T17:14:15.799Z,4.47
2023-02-03T17:16:45.356Z,3.28
2023-02-03T17:19:14.615Z,3.63
2023-02-03T17:21:43.679Z,2.42
2023-02-03T17:24:16.338Z,5.78
2023-02-03T17:26:46.964Z,2.63
2023-02-03T17:29:16.064Z,2.22
2023-02-03T17:31:45.170Z,2.72
2023-02-03T17:34:14.312Z,3.60
2023-02-03T17:36:43.387Z,7.90
2023-02-03T17:55:34.892Z,104.28
2023-02-03T17:58:05.300Z,20.75
2023-02-03T18:00:34.465Z,31.40
2023-02-03T18:03:04.175Z,33.53
2023-02-03T18:05:33.996Z,12.30
2023-02-03T18:08:09.133Z,10.63
2023-02-03T18:10:45.762Z,9.55
2023-02-03T18:13:16.183Z,8.43
2023-02-03T18:15:45.250Z,7.63
2023-02-03T18:18:14.315Z,19.90
2023-02-03T18:20:43.427Z,22.85
2023-02-03T18:23:12.718Z,22.73
2023-02-03T18:25:41.764Z,16.40
2023-02-03T18:28:10.894Z,6.35
2023-02-03T18:30:41.450Z,14.38
2023-02-03T18:33:10.624Z,16.77
2023-02-03T18:35:39.864Z,33.45
2023-02-03T18:38:11.065Z,16.08
2023-02-03T18:40:40.302Z,10.52
2023-02-03T18:43:09.472Z,9.32
2023-02-03T18:45:40.816Z,17.23
2023-02-03T18:50:41.801Z,11.25
2023-02-03T18:53:11.349Z,9.43
2023-02-03T18:55:42.656Z,7.72
2023-02-03T19:00:43.714Z,9.50
2023-02-03T19:03:12.800Z,8.90
2023-02-03T19:05:42.395Z,7.03
2023-02-03T19:08:11.683Z,7.72
2023-02-03T19:10:41.006Z,6.68
2023-02-03T19:13:10.252Z,8.75
2023-02-03T19:15:39.366Z,26.58
2023-02-03T19:18:10.209Z,13.50
2023-02-03T19:20:39.344Z,12.20
2023-02-03T19:23:09.067Z,12.60
2023-02-03T19:25:38.160Z,8.60
2023-02-03T19:28:14.287Z,11.80
2023-02-03T19:30:46.798Z,9.20
2023-02-03T19:33:17.266Z,12.13
2023-02-03T19:35:50.116Z,10.60
2023-02-03T19:38:19.245Z,9.57
2023-02-03T19:40:48.291Z,7.75
2023-02-03T19:43:17.430Z,8.07
2023-02-03T19:45:46.473Z,7.72
2023-02-03T19:48:16.900Z,8.30
2023-02-03T19:50:47.468Z,9.47
2023-02-03T19:53:17.752Z,11.20
2023-02-03T19:55:47.609Z,11.85
2023-02-03T19:58:16.617Z,9.80
2023-02-03T20:00:45.712Z,9.43
2023-02-03T20:03:17.733Z,11.50
2023-02-03T20:05:47.098Z,10.48
2023-02-03T20:08:16.823Z,7.70
2023-02-03T20:10:47.359Z,6.18
2023-02-03T20:13:16.985Z,7.22
2023-02-03T20:15:47.760Z,5.75
2023-02-03T20:18:18.384Z,7.22
2023-02-03T20:20:51.596Z,7.57
2023-02-03T20:23:20.908Z,9.80
2023-02-03T20:25:50.585Z,19.27
2023-02-03T20:28:20.113Z,102.13
2023-02-03T20:30:52.778Z,118.82
2023-02-03T20:33:23.560Z,96.95
2023-02-03T20:35:52.628Z,81.65
2023-02-03T20:38:22.071Z,36.90
2023-02-03T20:40:52.489Z,30.77
2023-02-03T20:43:23.821Z,16.73
2023-02-03T20:48:25.686Z,10.18
2023-02-03T20:50:54.907Z,19.73
2023-02-03T20:53:26.174Z,21.58
2023-02-03T20:58:29.040Z,10.20
2023-02-03T21:00:58.652Z,13.90
2023-02-03T21:03:46.382Z,14.00
2023-02-03T21:06:17.784Z,9.32
2023-02-03T21:08:48.677Z,7.22
2023-02-03T21:11:19.752Z,6.88
2023-02-03T21:13:50.260Z,7.30
2023-02-03T21:16:21.818Z,8.48
2023-02-03T21:18:55.381Z,11.35
2023-02-03T21:21:31.250Z,13.88
2023-02-03T21:24:00.784Z,13.63
2023-02-03T21:26:35.719Z,16.67
2023-02-03T21:29:04.873Z,17.38
2023-02-03T21:31:36.013Z,20.83
2023-02-03T21:34:28.132Z,19.42
2023-02-03T21:36:57.710Z,15.38
2023-02-03T21:39:29.758Z,18.90
2023-02-03T21:42:02.044Z,17.48
2023-02-03T21:44:35.638Z,14.73
2023-02-03T21:47:06.466Z,11.82
2023-02-03T21:49:37.269Z,6.72
2023-02-03T21:52:06.819Z,6.72
2023-02-03T21:54:38.577Z,4.72
2023-02-03T21:57:14.002Z,6.80
2023-02-03T21:59:46.900Z,3.78
2023-02-03T22:02:45.388Z,3.65
2023-02-03T22:05:18.064Z,3.15
2023-02-03T22:07:47.194Z,2.72
2023-02-03T22:10:16.812Z,2.97
2023-02-03T22:12:48.064Z,4.95
2023-02-03T22:17:48.400Z,2.63
2023-02-03T22:22:48.467Z,4.47
2023-02-03T22:25:17.707Z,7.35
2023-02-03T22:27:47.043Z,10.52
2023-02-03T22:30:18.148Z,15.20
2023-02-03T22:32:47.570Z,8.15
2023-02-03T22:35:19.808Z,6.25
2023-02-03T22:37:50.383Z,8.90
2023-02-03T22:40:21.197Z,3.23
2023-02-03T22:42:50.605Z,6.38
2023-02-03T22:45:21.891Z,4.40
2023-02-03T22:47:50.985Z,3.78
2023-02-03T22:50:34.395Z,4.18
2023-02-03T22:53:06.082Z,3.47
2023-02-03T22:55:35.224Z,3.15
2023-02-03T22:58:05.300Z,2.72
2023-02-03T23:00:35.080Z,2.17
2023-02-03T23:03:05.110Z,2.88
2023-02-03T23:05:35.708Z,1.92
2023-02-03T23:08:05.027Z,4.13
2023-02-03T23:10:34.494Z,4.10
2023-02-03T23:13:03.634Z,1.75
2023-02-03T23:15:32.853Z,1.88
2023-02-03T23:18:01.942Z,1.65
2023-02-03T23:20:31.548Z,2.65
2023-02-03T23:23:02.502Z,4.20
2023-02-03T23:25:31.676Z,5.82
2023-02-03T23:28:00.882Z,2.28
2023-02-03T23:30:30.326Z,14.52
2023-02-03T23:32:59.769Z,5.28
2023-02-03T23:35:51.637Z,12.30
2023-02-03T23:38:22.394Z,15.05
2023-02-03T23:40:51.473Z,17.40
2023-02-03T23:43:20.758Z,51.00
2023-02-03T23:46:01.243Z,67.78
2023-02-03T23:48:30.369Z,85.60
2023-02-03T23:50:59.439Z,58.92
2023-02-03T23:53:30.124Z,52.47
2023-02-03T23:56:14.903Z,35.80
2023-02-03T23:58:44.250Z,39.58
